Time;durP1;ratioP1;P1;durP2;ratioP2;P2;SDS_P1;SDS_P2;PMS_P1;PMS_P2;Temp;Humidity;BMP_temperature;BMP_pressure;BME280_temperature;BME280_humidity;BME280_pressure;Samples;Min_cycle;Max_cycle;Signal;HPM_P1;HPM_P2
2022/09/08 00:00:47;;;;;;;7.07;4.27;;;;;;;6.39;100.00;99901.64;1712235;81;21098;-43
2022/09/08 00:03:17;;;;;;;8.00;4.60;;;;;;;6.45;100.00;99909.05;1709766;81;21871;-44
2022/09/08 00:05:56;;;;;;;11.03;4.40;;;;;;;6.53;100.00;99909.28;1713187;81;21065;-46
2022/09/08 00:08:24;;;;;;;8.60;5.47;;;;;;;6.55;100.00;99900.27;1715711;81;20974;-44
2022/09/08 00:10:52;;;;;;;8.97;5.37;;;;;;;6.56;100.00;99898.47;1715025;81;21058;-46
2022/09/08 00:13:18;;;;;;;6.27;3.53;;;;;;;6.54;100.00;99902.55;1721120;81;21340;-45
2022/09/08 00:15:45;;;;;;;8.67;5.00;;;;;;;6.56;100.00;99903.81;1715294;81;21146;-43
2022/09/08 00:18:12;;;;;;;11.70;4.90;;;;;;;6.55;100.00;99905.61;1719573;81;21145;-43
2022/09/08 00:20:38;;;;;;;10.50;6.03;;;;;;;6.54;100.00;99897.20;1708410;81;21050;-46
2022/09/08 00:23:05;;;;;;;7.30;4.73;;;;;;;6.54;100.00;99906.56;1665387;83;21098;-44
2022/09/08 00:25:32;;;;;;;10.40;3.83;;;;;;;6.55;100.00;99908.78;1659257;83;21081;-45
2022/09/08 00:27:58;;;;;;;7.10;3.77;;;;;;;6.56;100.00;99898.02;1661353;83;21156;-43
2022/09/08 00:30:25;;;;;;;7.47;3.77;;;;;;;6.58;100.00;99900.64;1662942;83;21580;-43
2022/09/08 00:32:51;;;;;;;6.87;3.90;;;;;;;6.60;100.00;99898.81;1656445;84;21067;-44
2022/09/08 00:35:18;;;;;;;4.90;3.27;;;;;;;6.67;100.00;99895.03;1637806;85;21177;-44
2022/09/08 00:37:46;;;;;;;7.83;4.00;;;;;;;6.75;100.00;99899.22;1630499;85;21090;-43
2022/09/08 00:40:13;;;;;;;9.27;4.20;;;;;;;6.86;100.00;99895.34;1641238;86;22944;-42
2022/09/08 00:42:40;;;;;;;6.63;4.07;;;;;;;6.93;100.00;99893.77;1644844;84;21628;-44
2022/09/08 00:45:08;;;;;;;10.03;5.43;;;;;;;7.03;100.00;99883.66;1646554;86;21078;-45
2022/09/08 00:47:54;;;;;;;6.87;4.47;;;;;;;7.09;100.00;99884.33;1648135;84;21110;-44
2022/09/08 00:50:23;;;;;;;8.37;4.80;;;;;;;7.13;100.00;99881.98;1643165;84;21053;-46
2022/09/08 00:53:00;;;;;;;8.83;4.97;;;;;;;7.13;100.00;99882.44;1629944;84;21169;-44
2022/09/08 00:55:34;;;;;;;11.47;5.13;;;;;;;7.13;100.00;99879.30;1652017;84;21074;-45
2022/09/08 00:58:00;;;;;;;13.00;5.37;;;;;;;7.16;100.00;99875.62;1636861;85;21067;-44
2022/09/08 01:00:27;;;;;;;6.83;3.77;;;;;;;7.15;100.00;99876.09;1654413;84;21133;-46
2022/09/08 01:02:54;;;;;;;10.40;4.37;;;;;;;7.14;100.00;99864.13;1629208;85;21119;-43
2022/09/08 01:05:23;;;;;;;6.53;3.10;;;;;;;7.12;100.00;99863.28;1631875;85;21224;-43
2022/09/08 01:13:38;;;;;;;4.65;3.30;;;;;;;7.11;100.00;99854.38;1615093;84;21467;-42
2022/09/08 01:16:09;;;;;;;6.83;3.97;;;;;;;7.09;100.00;99864.71;1657242;84;22214;-41
2022/09/08 01:18:37;;;;;;;5.83;3.67;;;;;;;7.07;100.00;99874.13;1650705;84;22806;-45
2022/09/08 01:21:34;;;;;;;8.20;4.20;;;;;;;7.05;100.00;99868.43;1627244;85;21087;-42
2022/09/08 01:24:13;;;;;;;6.57;3.60;;;;;;;7.02;100.00;99868.52;1659579;84;22497;-43
2022/09/08 01:27:08;;;;;;;7.07;4.07;;;;;;;7.00;100.00;99867.68;1654794;84;21142;-47
2022/09/08 01:29:35;;;;;;;7.27;3.80;;;;;;;7.00;100.00;99867.22;1661894;83;21668;-45
2022/09/08 01:32:03;;;;;;;8.90;4.47;;;;;;;7.01;100.00;99873.45;1644015;85;21539;-44
2022/09/08 01:34:40;;;;;;;6.57;3.87;;;;;;;7.02;100.00;99869.85;1700361;82;21573;-44
2022/09/08 01:37:08;;;;;;;7.00;3.87;;;;;;;7.04;100.00;99863.54;1705463;82;21061;-47
2022/09/08 01:39:35;;;;;;;5.33;3.53;;;;;;;7.07;100.00;99870.57;1705189;82;21148;-46
2022/09/08 01:42:05;;;;;;;6.10;3.10;;;;;;;7.08;100.00;99870.98;1700538;82;21171;-44
2022/09/08 01:44:33;;;;;;;5.50;2.43;;;;;;;7.09;100.00;99871.41;1677388;82;22390;-43
2022/09/08 01:47:00;;;;;;;4.50;3.40;;;;;;;7.11;100.00;99875.80;1701416;82;21092;-44
2022/09/08 01:49:27;;;;;;;8.47;3.60;;;;;;;7.13;100.00;99871.73;1710118;82;21097;-47
2022/09/08 01:51:53;;;;;;;6.37;3.73;;;;;;;7.18;100.00;99871.11;1683291;82;21099;-47
2022/09/08 01:54:21;;;;;;;6.03;3.23;;;;;;;7.22;100.00;99867.42;1698062;82;21124;-47
2022/09/08 01:56:47;;;;;;;4.77;3.40;;;;;;;7.29;100.00;99870.77;1704745;82;21639;-49
2022/09/08 01:59:14;;;;;;;6.93;4.00;;;;;;;7.36;100.00;99865.61;1702199;82;21096;-47
2022/09/08 02:01:41;;;;;;;7.10;3.47;;;;;;;7.37;100.00;99869.59;1700826;82;21061;-47
2022/09/08 02:04:08;;;;;;;7.73;3.40;;;;;;;7.38;100.00;99867.78;1705468;82;22049;-47
2022/09/08 02:06:36;;;;;;;9.87;4.10;;;;;;;7.36;100.00;99870.51;1707153;82;21029;-48
2022/09/08 02:09:03;;;;;;;6.13;3.07;;;;;;;7.36;100.00;99861.14;1700603;82;21238;-48
2022/09/08 02:11:29;;;;;;;6.37;3.40;;;;;;;7.38;100.00;99859.29;1704529;82;21092;-48
2022/09/08 02:13:56;;;;;;;7.20;3.77;;;;;;;7.43;100.00;99870.71;1701154;82;21033;-48
2022/09/08 02:16:23;;;;;;;4.60;2.67;;;;;;;7.45;100.00;99858.61;1702886;82;22144;-47
2022/09/08 02:18:52;;;;;;;4.53;2.40;;;;;;;7.47;100.00;99854.97;1701947;82;21056;-48
2022/09/08 02:21:19;;;;;;;8.53;2.77;;;;;;;7.53;100.00;99854.75;1707231;82;21100;-48
2022/09/08 02:23:48;;;;;;;7.87;2.97;;;;;;;7.60;100.00;99860.30;1709477;82;21454;-47
2022/09/08 02:26:24;;;;;;;7.43;3.27;;;;;;;7.67;100.00;99852.04;1701731;82;21097;-48
2022/09/08 02:28:54;;;;;;;5.07;3.13;;;;;;;7.70;100.00;99848.80;1671418;84;21395;-46
2022/09/08 02:31:21;;;;;;;4.97;3.20;;;;;;;7.74;100.00;99842.39;1725095;81;20919;-46
2022/09/08 02:33:48;;;;;;;6.17;3.93;;;;;;;7.79;100.00;99848.95;1722273;81;21100;-46
2022/09/08 02:36:14;;;;;;;8.87;4.63;;;;;;;7.77;100.00;99849.45;1720350;81;21429;-46
2022/09/08 02:38:41;;;;;;;6.30;4.33;;;;;;;7.76;100.00;99845.02;1723196;81;20935;-46
2022/09/08 02:41:07;;;;;;;8.27;4.43;;;;;;;7.74;100.00;99848.25;1724695;81;20978;-47
2022/09/08 02:43:36;;;;;;;8.43;4.63;;;;;;;7.69;100.00;99852.87;1722728;81;20946;-47
2022/09/08 02:46:09;;;;;;;7.40;4.50;;;;;;;7.63;100.00;99847.27;1723436;81;21089;-46
2022/09/08 02:48:37;;;;;;;7.13;4.10;;;;;;;7.57;100.00;99850.17;1728265;81;20896;-46
2022/09/08 02:51:06;;;;;;;6.27;3.63;;;;;;;7.52;100.00;99848.09;1717512;81;21128;-47
2022/09/08 02:53:33;;;;;;;7.10;3.53;;;;;;;7.46;100.00;99852.33;1719961;81;21049;-46
2022/09/08 02:56:01;;;;;;;6.47;4.03;;;;;;;7.42;100.00;99859.58;1720002;81;21109;-47
2022/09/08 02:58:27;;;;;;;8.87;4.23;;;;;;;7.38;100.00;99861.97;1718898;81;22031;-46
2022/09/08 03:00:54;;;;;;;5.83;4.07;;;;;;;7.32;100.00;99867.97;1719346;81;21117;-46
2022/09/08 03:03:21;;;;;;;4.80;2.90;;;;;;;7.29;100.00;99873.45;1720206;81;20919;-47
2022/09/08 03:05:49;;;;;;;6.07;3.70;;;;;;;7.24;100.00;99866.88;1722561;81;20899;-46
2022/09/08 03:08:16;;;;;;;6.13;3.80;;;;;;;7.22;100.00;99863.41;1722200;81;21025;-45
2022/09/08 03:10:43;;;;;;;8.90;4.20;;;;;;;7.20;100.00;99867.47;1716903;81;21493;-46
2022/09/08 03:13:10;;;;;;;7.70;4.07;;;;;;;7.19;100.00;99870.19;1715693;81;21116;-46
2022/09/08 03:15:37;;;;;;;10.43;4.47;;;;;;;7.12;100.00;99864.16;1724794;81;21145;-46
2022/09/08 03:18:04;;;;;;;6.53;3.83;;;;;;;7.06;100.00;99863.00;1721892;81;21586;-46
2022/09/08 03:20:32;;;;;;;4.00;2.77;;;;;;;7.00;100.00;99862.33;1719864;81;21038;-47
2022/09/08 03:22:59;;;;;;;7.00;3.10;;;;;;;6.97;100.00;99867.80;1718117;81;22720;-46
2022/09/08 03:25:25;;;;;;;4.00;3.20;;;;;;;6.92;100.00;99865.71;1721671;81;22247;-46
2022/09/08 03:27:52;;;;;;;4.53;3.10;;;;;;;6.88;100.00;99868.09;1722734;81;21749;-46
2022/09/08 03:30:18;;;;;;;6.17;3.37;;;;;;;6.89;100.00;99867.17;1720126;80;21104;-47
2022/09/08 03:32:45;;;;;;;7.97;3.50;;;;;;;6.90;100.00;99864.87;1725130;80;21701;-47
2022/09/08 03:35:14;;;;;;;4.47;3.33;;;;;;;6.93;100.00;99868.34;1724162;80;21123;-46
2022/09/08 03:37:41;;;;;;;6.03;3.10;;;;;;;6.96;100.00;99860.23;1724955;80;21501;-46
2022/09/08 03:40:11;;;;;;;4.90;4.03;;;;;;;7.00;100.00;99857.86;1722225;80;21145;-46
2022/09/08 03:42:39;;;;;;;5.50;4.10;;;;;;;7.04;100.00;99858.64;1722617;80;21073;-47
2022/09/08 03:45:12;;;;;;;8.20;4.33;;;;;;;7.06;100.00;99860.81;1724371;80;21033;-47
2022/09/08 03:47:41;;;;;;;7.08;4.55;;;;;;;7.04;100.00;99861.32;1727567;80;21076;-46
2022/09/08 03:50:09;;;;;;;8.77;5.43;;;;;;;7.03;100.00;99859.56;1725046;80;21080;-47
2022/09/08 03:52:37;;;;;;;8.13;4.90;;;;;;;7.01;100.00;99855.59;1726096;80;21058;-46
2022/09/08 03:55:05;;;;;;;10.67;5.33;;;;;;;6.98;100.00;99853.47;1726062;80;21009;-46
2022/09/08 03:57:32;;;;;;;10.37;5.50;;;;;;;6.96;100.00;99858.02;1727128;80;21180;-46
2022/09/08 03:59:59;;;;;;;7.67;4.77;;;;;;;6.90;100.00;99851.04;1724559;80;21069;-46
2022/09/08 04:02:26;;;;;;;8.37;3.70;;;;;;;6.86;100.00;99851.20;1730536;80;21136;-47
2022/09/08 04:04:55;;;;;;;6.67;3.23;;;;;;;6.84;100.00;99851.23;1726034;80;21348;-47
2022/09/08 04:07:26;;;;;;;5.73;3.57;;;;;;;6.83;100.00;99851.70;1724432;80;21125;-46
2022/09/08 04:09:54;;;;;;;6.20;3.60;;;;;;;6.82;100.00;99849.95;1725430;81;21081;-46
2022/09/08 04:12:21;;;;;;;5.43;3.73;;;;;;;6.82;100.00;99852.62;1732149;80;21794;-47
2022/09/08 04:14:48;;;;;;;6.30;3.00;;;;;;;6.83;100.00;99853.50;1722069;80;21520;-46
2022/09/08 04:17:17;;;;;;;6.70;3.67;;;;;;;6.86;100.00;99851.20;1721199;80;21504;-47
2022/09/08 04:19:43;;;;;;;6.23;4.00;;;;;;;6.91;100.00;99858.14;1724199;80;21100;-46
2022/09/08 04:22:11;;;;;;;6.67;3.40;;;;;;;6.99;100.00;99856.56;1724226;80;21042;-46
2022/09/08 04:24:37;;;;;;;7.57;4.27;;;;;;;7.06;100.00;99859.48;1722459;80;21525;-46
2022/09/08 04:27:04;;;;;;;5.90;3.83;;;;;;;7.13;100.00;99861.91;1723768;80;21074;-46
2022/09/08 04:29:30;;;;;;;6.20;3.67;;;;;;;7.18;100.00;99857.27;1721996;80;21109;-46
2022/09/08 04:31:57;;;;;;;3.77;2.70;;;;;;;7.21;100.00;99861.19;1717567;81;21050;-45
2022/09/08 04:34:23;;;;;;;5.37;3.40;;;;;;;7.28;100.00;99870.34;1717075;81;21556;-46
2022/09/08 04:36:50;;;;;;;5.27;3.63;;;;;;;7.42;100.00;99869.42;1715691;81;21141;-47
2022/09/08 04:39:19;;;;;;;3.37;2.40;;;;;;;7.65;100.00;99872.67;1723619;81;21083;-46
2022/09/08 04:41:46;;;;;;;5.83;2.20;;;;;;;7.96;100.00;99865.30;1717877;81;21042;-47
2022/09/08 04:44:13;;;;;;;5.07;3.57;;;;;;;8.32;100.00;99865.34;1715056;81;21038;-46
2022/09/08 04:46:39;;;;;;;6.43;4.00;;;;;;;8.72;100.00;99861.13;1719394;81;21548;-47
2022/09/08 04:49:06;;;;;;;7.10;4.33;;;;;;;9.05;100.00;99863.81;1720330;81;21126;-46
2022/09/08 04:51:33;;;;;;;5.93;3.80;;;;;;;9.29;100.00;99860.59;1721077;80;21678;-47
2022/09/08 04:54:00;;;;;;;5.13;4.13;;;;;;;9.42;100.00;99855.61;1719773;81;21094;-46
2022/09/08 04:56:26;;;;;;;8.95;4.37;;;;;;;9.52;100.00;99861.00;1716782;81;21069;-46
2022/09/08 04:58:54;;;;;;;9.03;4.87;;;;;;;9.58;100.00;99862.55;1722777;81;21026;-46
2022/09/08 05:01:25;;;;;;;8.25;5.08;;;;;;;9.63;100.00;99863.20;1723366;81;21159;-46
2022/09/08 05:03:52;;;;;;;12.10;6.95;;;;;;;9.64;100.00;99853.74;1725119;81;22130;-46
2022/09/08 05:06:19;;;;;;;10.07;6.37;;;;;;;9.67;100.00;99859.00;1728896;81;21554;-47
2022/09/08 05:08:51;;;;;;;10.05;7.03;;;;;;;9.72;100.00;99860.13;1716663;81;21252;-46
2022/09/08 05:11:19;;;;;;;12.18;5.95;;;;;;;9.78;100.00;99855.86;1717986;81;21101;-47
2022/09/08 05:13:46;;;;;;;10.23;5.60;;;;;;;9.84;100.00;99855.58;1721620;81;21548;-47
2022/09/08 05:16:15;;;;;;;6.65;5.45;;;;;;;9.92;100.00;99853.90;1723598;81;21077;-46
2022/09/08 05:18:50;;;;;;;10.10;6.05;;;;;;;10.00;100.00;99855.31;1724735;81;21387;-46
2022/09/08 05:21:17;;;;;;;11.83;6.72;;;;;;;10.11;100.00;99858.88;1722577;81;21603;-46
2022/09/08 05:23:44;;;;;;;13.22;6.15;;;;;;;10.24;100.00;99863.66;1718553;81;21124;-47
2022/09/08 05:26:13;;;;;;;16.42;7.53;;;;;;;10.40;100.00;99858.45;1719952;81;21056;-47
2022/09/08 05:28:41;;;;;;;13.43;7.17;;;;;;;10.56;100.00;99857.27;1725499;81;20998;-48
2022/09/08 05:31:08;;;;;;;8.48;5.75;;;;;;;10.72;100.00;99857.45;1723732;81;21277;-47
2022/09/08 05:33:35;;;;;;;8.48;5.20;;;;;;;10.89;100.00;99860.18;1732695;81;21346;-46
2022/09/08 05:36:03;;;;;;;11.28;5.58;;;;;;;11.06;100.00;99859.41;1718538;81;21002;-47
2022/09/08 05:38:30;;;;;;;5.47;3.72;;;;;;;11.24;100.00;99853.97;1715632;81;21117;-47
2022/09/08 05:40:59;;;;;;;6.83;3.43;;;;;;;11.42;100.00;99857.56;1726004;81;20929;-47
2022/09/08 05:43:25;;;;;;;8.88;4.08;;;;;;;11.59;100.00;99857.59;1705177;81;20962;-47
2022/09/08 05:45:52;;;;;;;8.25;4.90;;;;;;;11.74;100.00;99855.49;1718405;81;21061;-47
2022/09/08 05:48:18;;;;;;;5.65;3.27;;;;;;;11.90;100.00;99858.30;1717096;81;21536;-47
2022/09/08 05:50:45;;;;;;;5.67;3.33;;;;;;;12.04;100.00;99862.48;1724354;81;21177;-47
2022/09/08 05:53:12;;;;;;;11.33;3.25;;;;;;;12.19;100.00;99863.97;1720791;81;21003;-47
2022/09/08 05:55:40;;;;;;;7.67;3.12;;;;;;;12.31;100.00;99860.16;1720958;81;21074;-47
2022/09/08 05:58:08;;;;;;;7.05;4.00;;;;;;;12.46;100.00;99850.34;1721233;81;21080;-47
2022/09/08 06:00:37;;;;;;;13.15;4.03;;;;;;;12.59;100.00;99853.27;1724400;81;20986;-47
2022/09/08 06:03:03;;;;;;;4.70;3.12;;;;;;;12.71;100.00;99856.15;1727509;80;21104;-47
2022/09/08 06:05:30;;;;;;;14.35;3.85;;;;;;;12.84;100.00;99851.80;1720270;81;21580;-47
2022/09/08 06:07:56;;;;;;;6.97;2.92;;;;;;;12.95;100.00;99851.68;1727871;81;21070;-48
2022/09/08 06:10:24;;;;;;;5.03;3.08;;;;;;;13.06;100.00;99859.58;1662404;84;21089;-48
2022/09/08 06:12:51;;;;;;;6.37;2.77;;;;;;;13.17;100.00;99854.96;1729601;81;21099;-47
2022/09/08 06:15:18;;;;;;;10.05;3.20;;;;;;;13.28;100.00;99855.20;1721192;81;22465;-48
2022/09/08 06:17:45;;;;;;;3.85;2.10;;;;;;;13.37;100.00;99852.44;1720169;81;21105;-48
2022/09/08 06:20:11;;;;;;;2.35;1.57;;;;;;;13.48;100.00;99850.86;1668495;84;21068;-47
2022/09/08 06:22:38;;;;;;;6.83;1.30;;;;;;;13.59;100.00;99857.00;1667131;84;21097;-47
2022/09/08 06:25:07;;;;;;;3.87;1.22;;;;;;;13.71;100.00;99852.69;1718093;81;21101;-49
2022/09/08 06:28:03;;;;;;;6.42;1.60;;;;;;;13.82;100.00;99852.92;1724050;81;22439;-48
2022/09/08 06:30:29;;;;;;;5.62;0.95;;;;;;;13.93;100.00;99857.22;1717126;81;20983;-48
2022/09/08 06:33:00;;;;;;;2.85;1.25;;;;;;;14.05;100.00;99848.34;1718774;81;21453;-49
2022/09/08 06:35:35;;;;;;;3.15;0.80;;;;;;;14.16;100.00;99853.11;1720822;81;21062;-48
2022/09/08 06:38:14;;;;;;;1.72;0.85;;;;;;;14.25;100.00;99856.60;1718567;81;21081;-49
2022/09/08 06:40:49;;;;;;;4.72;0.70;;;;;;;14.36;100.00;99855.47;1713040;81;21489;-49
2022/09/08 06:43:37;;;;;;;3.08;0.78;;;;;;;14.49;100.00;99854.23;1715018;81;21075;-49
2022/09/08 06:46:25;;;;;;;1.32;0.65;;;;;;;14.60;100.00;99854.44;1722217;81;21399;-46
2022/09/08 06:48:53;;;;;;;2.40;0.70;;;;;;;14.72;100.00;99861.77;1722766;81;21085;-47
2022/09/08 06:51:51;;;;;;;1.52;0.60;;;;;;;14.82;100.00;99861.58;1722439;81;21073;-47
2022/09/08 06:54:44;;;;;;;1.75;0.55;;;;;;;15.03;100.00;99866.13;1719922;81;21033;-47
2022/09/08 06:57:31;;;;;;;1.10;0.50;;;;;;;15.03;100.00;99866.13;1716234;81;21159;-47
2022/09/08 07:00:03;;;;;;;1.22;0.50;;;;;;;15.13;100.00;99865.92;1724830;81;20852;-48
2022/09/08 07:02:50;;;;;;;2.83;0.60;;;;;;;15.23;100.00;99871.58;1717363;81;21062;-47
2022/09/08 07:05:59;;;;;;;4.20;0.80;;;;;;;15.30;100.00;99872.95;1720374;81;21515;-47
2022/09/08 07:08:56;;;;;;;2.87;0.75;;;;;;;15.40;100.00;99883.55;1721037;81;21113;-47
2022/09/08 07:11:30;;;;;;;1.98;0.90;;;;;;;15.49;100.00;99880.23;1722713;81;21138;-47
2022/09/08 07:14:38;;;;;;;1.82;0.70;;;;;;;15.56;100.00;99878.04;1719871;81;21149;-47
2022/09/08 07:17:39;;;;;;;1.20;0.60;;;;;;;15.61;100.00;99879.47;1725362;81;21984;-47
2022/09/08 07:20:09;;;;;;;6.65;0.70;;;;;;;15.68;100.00;99879.43;1714243;81;21349;-47
2022/09/08 07:23:05;;;;;;;2.08;0.78;;;;;;;15.74;100.00;99883.56;1720129;81;21109;-47
2022/09/08 07:25:52;;;;;;;2.37;0.60;;;;;;;15.80;100.00;99882.69;1718483;80;21125;-48
2022/09/08 07:28:21;;;;;;;0.98;0.30;;;;;;;15.87;100.00;99883.14;1718165;81;21553;-48
2022/09/08 07:31:04;;;;;;;0.70;0.45;;;;;;;15.96;100.00;99883.00;1718540;81;21095;-47
2022/09/08 07:33:43;;;;;;;0.88;0.55;;;;;;;16.03;100.00;99886.55;1718974;81;21104;-47
2022/09/08 07:36:39;;;;;;;2.17;0.50;;;;;;;16.08;100.00;99889.80;1718579;80;21505;-47
2022/09/08 07:39:35;;;;;;;0.95;0.30;;;;;;;16.14;100.00;99894.83;1720386;81;21052;-47
2022/09/08 07:43:48;;;;;;;0.50;0.50;;;;;;;16.30;100.00;99896.00;1780268;78;28110;-48
2022/09/08 07:46:41;;;;;;;1.25;0.50;;;;;;;16.27;100.00;99896.20;1737069;80;22135;-47
2022/09/08 07:49:16;;;;;;;0.98;0.42;;;;;;;16.31;100.00;99899.09;1738117;80;21920;-48
2022/09/08 07:52:05;;;;;;;1.82;0.50;;;;;;;16.35;100.00;99899.25;1710845;80;21074;-48
2022/09/08 07:54:52;;;;;;;3.60;0.50;;;;;;;16.39;100.00;99901.28;1735650;80;21037;-47
2022/09/08 07:57:46;;;;;;;1.87;0.50;;;;;;;16.42;100.00;99896.48;1744287;80;21104;-48
2022/09/08 08:00:21;;;;;;;0.80;0.30;;;;;;;16.48;100.00;99893.84;1725604;80;20966;-48
2022/09/08 08:03:09;;;;;;;1.17;0.40;;;;;;;16.55;100.00;99900.58;1685384;80;21115;-48
2022/09/08 08:05:45;;;;;;;1.95;0.50;;;;;;;16.61;100.00;99899.69;1724978;80;20910;-48
2022/09/08 08:08:26;;;;;;;0.72;0.40;;;;;;;16.71;100.00;99901.75;1724459;80;21073;-47
2022/09/08 08:11:14;;;;;;;2.62;0.47;;;;;;;16.77;100.00;99892.67;1729606;80;21126;-48
2022/09/08 08:14:14;;;;;;;0.53;0.35;;;;;;;16.79;100.00;99889.36;1727808;80;21426;-48
2022/09/08 08:17:05;;;;;;;2.20;1.07;;;;;;;16.83;100.00;99884.09;1730105;80;21433;-48
2022/09/08 08:20:04;;;;;;;0.93;0.50;;;;;;;16.91;100.00;99891.20;1731626;80;20891;-48
2022/09/08 08:22:48;;;;;;;4.87;0.60;;;;;;;16.97;100.00;99884.45;1726260;80;20891;-48
2022/09/08 08:25:29;;;;;;;0.62;0.37;;;;;;;17.03;100.00;99878.55;1735737;80;20919;-48
2022/09/08 08:28:04;;;;;;;1.92;0.50;;;;;;;17.07;100.00;99886.89;1719509;80;21080;-48
2022/09/08 08:30:31;;;;;;;2.42;0.40;;;;;;;17.09;100.00;99887.65;1720807;80;22236;-47
2022/09/08 08:33:11;;;;;;;0.62;0.40;;;;;;;17.12;100.00;99888.77;1730745;80;20878;-47
2022/09/08 08:35:56;;;;;;;1.32;0.42;;;;;;;17.16;100.00;99880.77;1730276;80;20934;-48
2022/09/08 08:38:37;;;;;;;0.65;0.50;;;;;;;17.24;100.00;99880.21;1726719;80;21370;-48
2022/09/08 08:41:28;;;;;;;0.82;0.42;;;;;;;17.31;100.00;99887.80;1724986;80;21547;-47
2022/09/08 08:44:33;;;;;;;1.35;0.50;;;;;;;17.38;100.00;99886.84;1729012;80;21729;-47
2022/09/08 08:47:35;;;;;;;7.58;0.50;;;;;;;17.41;100.00;99881.19;1725360;80;21006;-47
2022/09/08 08:50:18;;;;;;;1.25;0.55;;;;;;;17.43;100.00;99871.56;1727407;80;21365;-47
2022/09/08 08:53:10;;;;;;;1.15;0.60;;;;;;;17.52;100.00;99869.52;1737224;80;20867;-48
2022/09/08 08:56:03;;;;;;;4.72;0.80;;;;;;;17.64;100.00;99869.48;1732154;80;20895;-47
2022/09/08 08:58:53;;;;;;;0.70;0.53;;;;;;;17.74;100.00;99868.30;1731054;80;21090;-48
2022/09/08 09:01:31;;;;;;;1.60;0.55;;;;;;;17.81;100.00;99876.86;1730589;80;21042;-48
2022/09/08 09:04:27;;;;;;;2.22;0.53;;;;;;;17.86;100.00;99870.59;1721027;80;21037;-47
2022/09/08 09:07:33;;;;;;;2.50;0.62;;;;;;;17.87;100.00;99873.66;1726849;80;21085;-48
2022/09/08 09:10:08;;;;;;;2.95;0.62;;;;;;;17.90;100.00;99866.63;1729647;80;21112;-48
2022/09/08 09:13:11;;;;;;;1.92;0.50;;;;;;;17.98;100.00;99861.45;1724242;80;21890;-47
2022/09/08 09:15:59;;;;;;;0.65;0.60;;;;;;;18.06;100.00;99855.80;1720953;80;21438;-48
2022/09/08 09:19:04;;;;;;;4.87;0.60;;;;;;;18.11;100.00;99860.41;1722603;80;21065;-48
2022/09/08 09:22:14;;;;;;;1.10;0.62;;;;;;;18.08;100.00;99859.77;1731167;80;21085;-47
2022/09/08 09:25:14;;;;;;;0.85;0.60;;;;;;;18.08;100.00;99860.64;1728594;80;21081;-47
2022/09/08 09:27:54;;;;;;;0.95;0.50;;;;;;;18.07;100.00;99860.75;1714715;80;21069;-47
2022/09/08 09:30:45;;;;;;;0.85;0.60;;;;;;;18.08;100.00;99860.64;1724227;80;21069;-48
2022/09/08 09:33:28;;;;;;;1.52;0.60;;;;;;;18.12;100.00;99858.03;1726177;80;21590;-47
2022/09/08 09:36:03;;;;;;;0.85;0.50;;;;;;;18.18;100.00;99864.02;1724799;80;21061;-48
2022/09/08 09:38:57;;;;;;;1.72;0.50;;;;;;;18.20;100.00;99865.64;1731222;80;21662;-48
2022/09/08 09:41:51;;;;;;;1.55;0.60;;;;;;;18.24;100.00;99864.89;1725681;80;21117;-47
2022/09/08 09:44:41;;;;;;;0.88;0.50;;;;;;;18.30;100.00;99869.85;1714795;81;21006;-47
2022/09/08 09:47:19;;;;;;;0.60;0.50;;;;;;;18.33;100.00;99864.17;1713873;81;21126;-47
2022/09/08 09:50:17;;;;;;;1.67;0.50;;;;;;;18.39;100.00;99863.69;1710842;81;21095;-47
2022/09/08 09:53:05;;;;;;;2.08;0.50;;;;;;;18.48;100.00;99865.69;1715338;81;21485;-48
2022/09/08 09:56:11;;;;;;;1.15;0.50;;;;;;;18.55;100.00;99861.48;1718956;81;22281;-48
2022/09/08 09:59:19;;;;;;;1.07;0.45;;;;;;;18.56;100.00;99865.95;1713576;81;21089;-48
2022/09/08 10:01:51;;;;;;;1.05;0.40;;;;;;;18.59;100.00;99868.47;1708338;81;21360;-48
2022/09/08 10:05:00;;;;;;;1.30;0.47;;;;;;;18.66;100.00;99866.98;1713374;81;21058;-48
2022/09/08 10:08:03;;;;;;;2.75;0.47;;;;;;;18.73;100.00;99873.69;1710263;81;21259;-48
2022/09/08 10:11:03;;;;;;;2.12;0.60;;;;;;;18.83;100.00;99873.33;1707701;81;21517;-48
2022/09/08 10:14:08;;;;;;;2.40;0.70;;;;;;;18.93;100.00;99873.95;1714439;81;22240;-48
2022/09/08 10:16:58;;;;;;;3.00;0.60;;;;;;;18.99;100.00;99866.63;1715488;81;21129;-47
2022/09/08 10:20:07;;;;;;;1.22;0.62;;;;;;;19.00;100.00;99867.88;1705408;81;21121;-47
2022/09/08 10:22:53;;;;;;;7.35;0.70;;;;;;;18.97;100.00;99865.91;1709024;81;21129;-48
2022/09/08 10:25:32;;;;;;;1.72;0.55;;;;;;;18.96;100.00;99876.45;1705959;81;21117;-48
2022/09/08 10:28:19;;;;;;;2.42;0.85;;;;;;;18.94;100.00;99872.47;1707761;81;21611;-48
2022/09/08 10:31:42;;;;;;;2.47;0.70;;;;;;;18.94;100.00;99878.42;1712110;81;21057;-48
2022/09/08 10:34:20;;;;;;;1.00;0.80;;;;;;;18.90;100.00;99880.02;1707213;81;21035;-49
2022/09/08 10:37:19;;;;;;;1.90;0.80;;;;;;;18.87;100.00;99872.59;1712907;81;21054;-48
2022/09/08 10:40:00;;;;;;;2.20;0.90;;;;;;;18.86;100.00;99876.31;1714197;81;21531;-48
2022/09/08 10:42:56;;;;;;;2.98;0.80;;;;;;;18.89;100.00;99873.31;1710052;81;21574;-48
2022/09/08 10:45:50;;;;;;;1.00;0.80;;;;;;;18.92;100.00;99868.98;1730431;80;21077;-48
2022/09/08 10:48:53;;;;;;;1.00;0.70;;;;;;;18.97;100.00;99870.84;1722940;80;21053;-48
2022/09/08 10:51:49;;;;;;;1.72;0.70;;;;;;;19.03;100.00;99870.36;1729799;80;21057;-47
2022/09/08 10:54:59;;;;;;;2.62;0.70;;;;;;;19.07;100.00;99866.38;1724462;80;21830;-48
2022/09/08 10:57:36;;;;;;;1.55;1.15;;;;;;;19.12;100.00;99872.84;1720146;80;21069;-48
2022/09/08 11:00:11;;;;;;;4.12;0.70;;;;;;;19.16;100.00;99868.84;1726827;80;21077;-48
2022/09/08 11:03:14;;;;;;;1.85;0.93;;;;;;;19.18;100.00;99858.69;1724223;80;21029;-47
2022/09/08 11:06:06;;;;;;;1.27;0.70;;;;;;;19.16;100.00;99858.80;1724407;80;21674;-47
2022/09/08 11:09:07;;;;;;;3.33;0.85;;;;;;;19.17;100.00;99861.04;1723691;80;21202;-48
2022/09/08 11:11:48;;;;;;;1.90;0.80;;;;;;;19.19;100.00;99856.33;1723504;80;21049;-48
2022/09/08 11:14:20;;;;;;;6.55;0.78;;;;;;;19.22;100.00;99856.92;1724201;80;21049;-48
2022/09/08 11:17:11;;;;;;;4.30;0.70;;;;;;;19.25;100.00;99850.36;1725957;80;21456;-48
2022/09/08 11:19:46;;;;;;;1.42;0.60;;;;;;;19.26;100.00;99852.09;1731971;80;20970;-47
2022/09/08 11:22:32;;;;;;;;;;;;;;;19.28;100.00;99850.98;1726217;80;22264;-48
2022/09/08 11:25:28;;;;;;;5.30;1.27;;;;;;;19.32;100.00;99847.98;1729995;80;20294;-48
2022/09/08 11:28:15;;;;;;;2.08;0.80;;;;;;;19.35;100.00;99854.07;1727798;80;21100;-48
2022/09/08 11:31:11;;;;;;;1.00;0.65;;;;;;;19.36;100.00;99853.08;1744229;80;21074;-48
2022/09/08 11:34:12;;;;;;;0.88;0.70;;;;;;;19.39;100.00;99850.60;1668719;83;20949;-48
2022/09/08 11:36:47;;;;;;;1.70;1.00;;;;;;;19.40;100.00;99837.30;1724681;80;21173;-48
2022/09/08 11:39:34;;;;;;;1.30;0.78;;;;;;;19.42;100.00;99841.64;1726531;80;20878;-48
2022/09/08 11:42:40;;;;;;;1.72;0.80;;;;;;;19.47;100.00;99844.91;1659606;83;20941;-49
2022/09/08 11:45:36;;;;;;;0.75;0.60;;;;;;;19.52;100.00;99834.46;1729114;80;21312;-47
2022/09/08 11:48:30;;;;;;;2.87;0.90;;;;;;;19.51;100.00;99839.55;1734699;80;21042;-51
2022/09/08 11:51:05;;;;;;;1.45;0.90;;;;;;;19.50;100.00;99834.20;1722998;80;21080;-51
2022/09/08 11:53:57;;;;;;;3.55;0.85;;;;;;;19.51;100.00;99836.81;1691128;80;20950;-50
2022/09/08 11:56:38;;;;;;;1.80;0.80;;;;;;;19.52;100.00;99834.95;1724008;80;21109;-51
2022/09/08 11:59:25;;;;;;;4.75;1.12;;;;;;;19.53;100.00;99828.50;1728095;80;21038;-47
2022/09/08 12:02:32;;;;;;;1.57;0.90;;;;;;;19.52;100.00;99829.49;1728652;80;21583;-48
2022/09/08 12:05:21;;;;;;;1.12;0.80;;;;;;;19.50;100.00;99831.48;1720589;80;21473;-48
2022/09/08 12:07:59;;;;;;;3.92;0.98;;;;;;;19.50;100.00;99832.34;1726374;80;21532;-49
2022/09/08 12:10:43;;;;;;;2.10;0.90;;;;;;;19.50;100.00;99826.89;1719561;80;21516;-51
2022/09/08 12:13:37;;;;;;;1.70;1.22;;;;;;;19.49;100.00;99831.97;1726209;80;21122;-51
2022/09/08 12:16:42;;;;;;;2.83;0.93;;;;;;;19.47;100.00;99835.36;1725148;80;21767;-51
2022/09/08 12:19:33;;;;;;;2.05;0.98;;;;;;;19.46;100.00;99826.76;1724047;80;21456;-48
2022/09/08 12:22:13;;;;;;;2.90;0.98;;;;;;;19.47;100.00;99833.99;1724472;80;21040;-51
2022/09/08 12:24:58;;;;;;;3.55;1.07;;;;;;;19.48;100.00;99834.33;1706450;80;21040;-50